Saint Bonnet de Bellac- Haute Vienne - France
Donnes mto: mardi, 27/12/2011
Date Horaire Temp. E. Hum. E. P.atmo. Pluie Vent Direction Direction Ensoleilleme Solaire P. de rose Temp au vent Rafales
27/12/2011 00:00 -0,2 C 93 % 1033,0 hPa 0,0 mm 0,0 km/h (0 Bft) N-NE 22 0 min 0 W/m -1,2 C -0,2 C 0,0 km/h (0 Bft)
27/12/2011 00:05 -0,3 C 93 % 1033,1 hPa 0,0 mm 0,0 km/h (0 Bft) N-NE 22 0 min 0 W/m -1,3 C -0,3 C 0,0 km/h (0 Bft)
27/12/2011 00:10 -0,4 C 93 % 1033,0 hPa 0,0 mm 0,0 km/h (0 Bft) N-NE 22 0 min 0 W/m -1,4 C -0,4 C 0,0 km/h (0 Bft)
27/12/2011 00:15 -0,4 C 93 % 1033,0 hPa 0,0 mm 0,0 km/h (0 Bft) N-NE 22 0 min 0 W/m -1,4 C -0,4 C 0,0 km/h (0 Bft)
27/12/2011 00:20 -0,5 C 93 % 1033,0 hPa 0,0 mm 0,0 km/h (0 Bft) N-NE 22 0 min 0 W/m -1,5 C -0,5 C 0,0 km/h (0 Bft)
27/12/2011 00:25 -0,5 C 93 % 1033,0 hPa 0,0 mm 0,0 km/h (0 Bft) N-NE 22 0 min 0 W/m -1,5 C -0,5 C 0,0 km/h (0 Bft)
27/12/2011 00:30 -0,6 C 93 % 1032,9 hPa 0,0 mm 0,0 km/h (0 Bft) N-NE 22 0 min 0 W/m -1,6 C -0,6 C 0,0 km/h (0 Bft)
27/12/2011 00:35 -0,6 C 93 % 1032,9 hPa 0,0 mm 0,0 km/h (0 Bft) N-NE 22 0 min 0 W/m -1,6 C -0,6 C 0,0 km/h (0 Bft)
27/12/2011 00:40 -0,6 C 93 % 1032,9 hPa 0,0 mm 0,0 km/h (0 Bft) N-NE 22 0 min 0 W/m -1,6 C -0,6 C 0,0 km/h (0 Bft)
27/12/2011 00:45 -0,7 C 93 % 1032,9 hPa 0,0 mm 0,0 km/h (0 Bft) N-NE 22 0 min 0 W/m -1,7 C -0,7 C 0,0 km/h (0 Bft)
27/12/2011 00:50 -0,7 C 93 % 1032,9 hPa 0,0 mm 0,0 km/h (0 Bft) N-NE 22 0 min 0 W/m -1,7 C -0,7 C 0,0 km/h (0 Bft)
27/12/2011 00:55 -0,8 C 93 % 1032,8 hPa 0,0 mm 0,0 km/h (0 Bft) N-NE 22 0 min 0 W/m -1,8 C -0,8 C 0,0 km/h (0 Bft)
27/12/2011 01:00 -0,9 C 93 % 1032,8 hPa 0,0 mm 0,0 km/h (0 Bft) N-NE 22 0 min 0 W/m -1,9 C -0,9 C 0,0 km/h (0 Bft)
27/12/2011 01:05 -0,9 C 93 % 1032,8 hPa 0,0 mm 0,0 km/h (0 Bft) N-NE 22 0 min 0 W/m -1,9 C -0,9 C 0,0 km/h (0 Bft)
27/12/2011 01:10 -1,1 C 93 % 1032,7 hPa 0,0 mm 0,0 km/h (0 Bft) N-NE 22 0 min 0 W/m -2,1 C -1,1 C 0,0 km/h (0 Bft)
27/12/2011 01:15 -1,1 C 93 % 1032,6 hPa 0,0 mm 0,0 km/h (0 Bft) N-NE 22 0 min 0 W/m -2,1 C -1,1 C 0,0 km/h (0 Bft)
27/12/2011 01:20 -1,2 C 93 % 1032,5 hPa 0,0 mm 0,0 km/h (0 Bft) N-NE 22 0 min 0 W/m -2,2 C -1,2 C 0,0 km/h (0 Bft)
27/12/2011 01:25 -1,2 C 93 % 1032,5 hPa 0,0 mm 0,0 km/h (0 Bft) N-NE 22 0 min 0 W/m -2,2 C -1,2 C 0,0 km/h (0 Bft)
27/12/2011 01:30 -1,2 C 93 % 1032,5 hPa 0,0 mm 0,0 km/h (0 Bft) SE 135 0 min 0 W/m -2,2 C -1,2 C 0,0 km/h (0 Bft)
27/12/2011 01:35 -1,3 C 93 % 1032,4 hPa 0,0 mm 0,0 km/h (0 Bft) SE 135 0 min 0 W/m -2,3 C -1,3 C 0,0 km/h (0 Bft)
27/12/2011 01:40 -1,4 C 93 % 1032,4 hPa 0,0 mm 0,0 km/h (0 Bft) SE 135 0 min 0 W/m -2,4 C -1,4 C 0,0 km/h (0 Bft)
27/12/2011 01:45 -1,4 C 93 % 1032,4 hPa 0,0 mm 0,0 km/h (0 Bft) SE 135 0 min 0 W/m -2,4 C -1,4 C 0,0 km/h (0 Bft)
27/12/2011 01:50 -1,4 C 93 % 1032,3 hPa 0,0 mm 0,0 km/h (0 Bft) SE 135 0 min 0 W/m -2,4 C -1,4 C 0,0 km/h (0 Bft)
27/12/2011 01:55 -1,4 C 93 % 1032,3 hPa 0,0 mm 0,0 km/h (0 Bft) SE 135 0 min 0 W/m -2,4 C -1,4 C 0,0 km/h (0 Bft)
27/12/2011 02:02 -1,5 C 93 % 1032,3 hPa 0,0 mm 0,0 km/h (0 Bft) SE 135 0 min 0 W/m -2,5 C -1,5 C 0,0 km/h (0 Bft)
27/12/2011 02:05 -1,5 C 93 % 1032,3 hPa 0,0 mm 0,0 km/h (0 Bft) SE 135 0 min 0 W/m -2,5 C -1,5 C 0,0 km/h (0 Bft)
27/12/2011 02:10 -1,6 C 93 % 1032,3 hPa 0,0 mm 0,0 km/h (0 Bft) SE 135 0 min 0 W/m -2,6 C -1,6 C 0,0 km/h (0 Bft)
27/12/2011 02:15 -1,5 C 93 % 1032,3 hPa 0,0 mm 0,0 km/h (0 Bft) E-SE 112 0 min 0 W/m -2,5 C -1,5 C 0,0 km/h (0 Bft)
27/12/2011 02:20 -1,5 C 93 % 1032,4 hPa 0,0 mm 0,4 km/h (0 Bft) SE 135 0 min 0 W/m -2,5 C -1,5 C 4,0 km/h (1 Bft)
27/12/2011 02:25 -1,5 C 93 % 1032,3 hPa 0,0 mm 0,0 km/h (0 Bft) E-SE 112 0 min 0 W/m -2,5 C -1,5 C 0,0 km/h (0 Bft)
27/12/2011 02:30 -1,5 C 93 % 1032,3 hPa 0,0 mm 0,7 km/h (0 Bft) SE 135 0 min 0 W/m -2,5 C -1,5 C 4,0 km/h (1 Bft)
27/12/2011 02:35 -1,5 C 93 % 1032,3 hPa 0,0 mm 0,7 km/h (0 Bft) E-NE 67 0 min 0 W/m -2,5 C -1,5 C 3,6 km/h (1 Bft)
27/12/2011 02:40 -1,4 C 93 % 1032,3 hPa 0,0 mm 0,0 km/h (0 Bft) E-SE 112 0 min 0 W/m -2,4 C -1,4 C 0,0 km/h (0 Bft)
27/12/2011 02:45 -1,4 C 93 % 1032,2 hPa 0,0 mm 0,0 km/h (0 Bft) E-SE 112 0 min 0 W/m -2,4 C -1,4 C 0,0 km/h (0 Bft)
27/12/2011 02:50 -1,4 C 93 % 1032,2 hPa 0,0 mm 0,0 km/h (0 Bft) E-SE 112 0 min 0 W/m -2,4 C -1,4 C 0,0 km/h (0 Bft)
27/12/2011 02:55 -1,4 C 93 % 1032,2 hPa 0,0 mm 0,0 km/h (0 Bft) E 90 0 min 0 W/m -2,4 C -1,4 C 3,6 km/h (1 Bft)
27/12/2011 03:00 -1,3 C 93 % 1032,2 hPa 0,0 mm 0,0 km/h (0 Bft) E-SE 112 0 min 0 W/m -2,3 C -1,3 C 0,0 km/h (0 Bft)
27/12/2011 03:05 -1,2 C 93 % 1032,2 hPa 0,0 mm 0,0 km/h (0 Bft) E-SE 112 0 min 0 W/m -2,2 C -1,2 C 0,0 km/h (0 Bft)
27/12/2011 03:10 -1,3 C 93 % 1032,1 hPa 0,0 mm 0,0 km/h (0 Bft) S-SE 157 0 min 0 W/m -2,3 C -1,3 C 0,0 km/h (0 Bft)
27/12/2011 03:15 -1,2 C 93 % 1032,2 hPa 0,0 mm 0,0 km/h (0 Bft) N 360 0 min 0 W/m -2,2 C -1,2 C 0,0 km/h (0 Bft)
27/12/2011 03:20 -1,3 C 93 % 1032,1 hPa 0,0 mm 0,0 km/h (0 Bft) E-SE 112 0 min 0 W/m -2,3 C -1,3 C 2,9 km/h (1 Bft)
27/12/2011 03:25 -1,3 C 93 % 1032,1 hPa 0,0 mm 1,4 km/h (1 Bft) E-SE 112 0 min 0 W/m -2,3 C -1,3 C 4,3 km/h (1 Bft)
27/12/2011 03:30 -1,3 C 93 % 1032,2 hPa 0,0 mm 1,1 km/h (1 Bft) E-SE 112 0 min 0 W/m -2,3 C -1,3 C 3,6 km/h (1 Bft)
27/12/2011 03:35 -1,2 C 93 % 1032,2 hPa 0,0 mm 1,8 km/h (1 Bft) E-SE 112 0 min 0 W/m -2,2 C -1,2 C 1,8 km/h (1 Bft)
27/12/2011 03:40 -1,2 C 93 % 1032,3 hPa 0,0 mm 1,4 km/h (1 Bft) E-SE 112 0 min 0 W/m -2,2 C -1,2 C 3,2 km/h (1 Bft)
27/12/2011 03:45 -1,2 C 93 % 1032,3 hPa 0,0 mm 0,0 km/h (0 Bft) E-SE 112 0 min 0 W/m -2,2 C -1,2 C 0,0 km/h (0 Bft)
27/12/2011 03:50 -1,2 C 93 % 1032,3 hPa 0,0 mm 0,0 km/h (0 Bft) E-SE 112 0 min 0 W/m -2,2 C -1,2 C 0,0 km/h (0 Bft)
27/12/2011 03:55 -1,2 C 93 % 1032,3 hPa 0,0 mm 0,0 km/h (0 Bft) E-SE 112 0 min 0 W/m -2,2 C -1,2 C 0,0 km/h (0 Bft)
27/12/2011 04:00 -1,2 C 93 % 1032,3 hPa 0,0 mm 0,0 km/h (0 Bft) E-SE 112 0 min 0 W/m -2,2 C -1,2 C 2,9 km/h (1 Bft)
27/12/2011 04:05 -1,2 C 93 % 1032,4 hPa 0,0 mm 0,4 km/h (0 Bft) E-SE 112 0 min 0 W/m -2,2 C -1,2 C 3,6 km/h (1 Bft)
27/12/2011 04:10 -1,2 C 93 % 1032,3 hPa 0,0 mm 0,4 km/h (0 Bft) E 90 0 min 0 W/m -2,2 C -1,2 C 0,4 km/h (0 Bft)
27/12/2011 04:15 -1,4 C 93 % 1032,3 hPa 0,0 mm 0,0 km/h (0 Bft) E 90 0 min 0 W/m -2,4 C -1,4 C 0,0 km/h (0 Bft)
27/12/2011 04:20 -1,4 C 93 % 1032,3 hPa 0,0 mm 0,4 km/h (0 Bft) E 90 0 min 0 W/m -2,4 C -1,4 C 2,9 km/h (1 Bft)
27/12/2011 04:25 -1,4 C 93 % 1032,2 hPa 0,0 mm 0,4 km/h (0 Bft) E-SE 112 0 min 0 W/m -2,4 C -1,4 C 0,4 km/h (0 Bft)
27/12/2011 04:30 -1,4 C 93 % 1032,2 hPa 0,0 mm 0,0 km/h (0 Bft) E-SE 112 0 min 0 W/m -2,4 C -1,4 C 0,0 km/h (0 Bft)
27/12/2011 04:35 -1,4 C 93 % 1032,2 hPa 0,0 mm 0,0 km/h (0 Bft) E-SE 112 0 min 0 W/m -2,4 C -1,4 C 0,0 km/h (0 Bft)
27/12/2011 04:40 -1,5 C 93 % 1032,1 hPa 0,0 mm 0,0 km/h (0 Bft) E-SE 112 0 min 0 W/m -2,5 C -1,5 C 0,0 km/h (0 Bft)
27/12/2011 04:45 -1,5 C 93 % 1032,1 hPa 0,0 mm 0,0 km/h (0 Bft) E-SE 112 0 min 0 W/m -2,5 C -1,5 C 0,0 km/h (0 Bft)
27/12/2011 04:50 -1,6 C 93 % 1032,0 hPa 0,0 mm 0,0 km/h (0 Bft) E-SE 112 0 min 0 W/m -2,6 C -1,6 C 0,0 km/h (0 Bft)
27/12/2011 04:55 -1,7 C 93 % 1032,1 hPa 0,0 mm 0,0 km/h (0 Bft) E-SE 112 0 min 0 W/m -2,7 C -1,7 C 0,0 km/h (0 Bft)
27/12/2011 05:00 -1,8 C 93 % 1032,1 hPa 0,0 mm 0,0 km/h (0 Bft) E-SE 112 0 min 0 W/m -2,8 C -1,8 C 0,0 km/h (0 Bft)
27/12/2011 05:05 -1,9 C 93 % 1032,1 hPa 0,0 mm 0,0 km/h (0 Bft) E-SE 112 0 min 0 W/m -2,9 C -1,9 C 0,0 km/h (0 Bft)
27/12/2011 05:10 -2,0 C 93 % 1032,1 hPa 0,0 mm 0,0 km/h (0 Bft) E-SE 112 0 min 0 W/m -3,0 C -2,0 C 0,0 km/h (0 Bft)
27/12/2011 05:15 -2,0 C 93 % 1032,0 hPa 0,0 mm 0,0 km/h (0 Bft) E-SE 112 0 min 0 W/m -3,0 C -2,0 C 0,0 km/h (0 Bft)
27/12/2011 05:20 -2,1 C 93 % 1032,1 hPa 0,0 mm 0,0 km/h (0 Bft) E-SE 112 0 min 0 W/m -3,1 C -2,1 C 0,0 km/h (0 Bft)
27/12/2011 05:25 -2,2 C 93 % 1032,1 hPa 0,0 mm 0,0 km/h (0 Bft) E-SE 112 0 min 0 W/m -3,2 C -2,2 C 0,0 km/h (0 Bft)
27/12/2011 05:30 -2,2 C 93 % 1032,1 hPa 0,0 mm 0,0 km/h (0 Bft) E-SE 112 0 min 0 W/m -3,2 C -2,2 C 0,0 km/h (0 Bft)
27/12/2011 05:35 -2,2 C 93 % 1032,0 hPa 0,0 mm 0,0 km/h (0 Bft) E-SE 112 0 min 0 W/m -3,2 C -2,2 C 0,0 km/h (0 Bft)
27/12/2011 05:40 -2,3 C 93 % 1031,9 hPa 0,0 mm 0,0 km/h (0 Bft) E-SE 112 0 min 0 W/m -3,3 C -2,3 C 0,0 km/h (0 Bft)
27/12/2011 05:45 -2,4 C 93 % 1031,9 hPa 0,0 mm 0,0 km/h (0 Bft) E-SE 112 0 min 0 W/m -3,4 C -2,4 C 0,0 km/h (0 Bft)
27/12/2011 05:50 -2,4 C 93 % 1032,0 hPa 0,0 mm 0,0 km/h (0 Bft) E-SE 112 0 min 0 W/m -3,4 C -2,4 C 0,0 km/h (0 Bft)
27/12/2011 05:55 -2,4 C 93 % 1032,0 hPa 0,0 mm 0,0 km/h (0 Bft) E-SE 112 0 min 0 W/m -3,4 C -2,4 C 0,0 km/h (0 Bft)
27/12/2011 06:00 -2,5 C 93 % 1032,1 hPa 0,0 mm 0,0 km/h (0 Bft) E-SE 112 0 min 0 W/m -3,5 C -2,5 C 0,0 km/h (0 Bft)
27/12/2011 06:05 -2,5 C 93 % 1032,1 hPa 0,0 mm 0,0 km/h (0 Bft) E-SE 112 0 min 0 W/m -3,5 C -2,5 C 0,0 km/h (0 Bft)
27/12/2011 06:10 -2,6 C 93 % 1032,1 hPa 0,0 mm 0,0 km/h (0 Bft) E-SE 112 0 min 0 W/m -3,6 C -2,6 C 0,0 km/h (0 Bft)
27/12/2011 06:15 -2,6 C 93 % 1032,1 hPa 0,0 mm 0,0 km/h (0 Bft) E-SE 112 0 min 0 W/m -3,6 C -2,6 C 0,0 km/h (0 Bft)
27/12/2011 06:20 -2,7 C 94 % 1032,1 hPa 0,0 mm 0,0 km/h (0 Bft) NE 45 0 min 0 W/m -3,5 C -2,7 C 0,0 km/h (0 Bft)
27/12/2011 06:25 -2,7 C 94 % 1032,0 hPa 0,0 mm 0,0 km/h (0 Bft) N-NE 22 0 min 0 W/m -3,5 C -2,7 C 0,0 km/h (0 Bft)
27/12/2011 06:30 -2,7 C 94 % 1031,9 hPa 0,0 mm 0,0 km/h (0 Bft) N-NE 22 0 min 0 W/m -3,5 C -2,7 C 0,0 km/h (0 Bft)
27/12/2011 06:35 -2,7 C 94 % 1032,0 hPa 0,0 mm 0,0 km/h (0 Bft) N-NE 22 0 min 0 W/m -3,5 C -2,7 C 0,0 km/h (0 Bft)
27/12/2011 06:40 -2,8 C 94 % 1031,9 hPa 0,0 mm 0,0 km/h (0 Bft) N-NE 22 0 min 0 W/m -3,6 C -2,8 C 0,0 km/h (0 Bft)
27/12/2011 06:45 -2,8 C 94 % 1031,9 hPa 0,0 mm 0,0 km/h (0 Bft) N-NE 22 0 min 0 W/m -3,6 C -2,8 C 0,0 km/h (0 Bft)
27/12/2011 06:50 -2,8 C 94 % 1031,9 hPa 0,0 mm 0,0 km/h (0 Bft) N-NE 22 0 min 0 W/m -3,6 C -2,8 C 0,0 km/h (0 Bft)
27/12/2011 06:55 -2,9 C 94 % 1031,9 hPa 0,0 mm 0,0 km/h (0 Bft) N-NE 22 0 min 0 W/m -3,7 C -2,9 C 0,0 km/h (0 Bft)
27/12/2011 07:00 -2,9 C 94 % 1031,9 hPa 0,0 mm 0,0 km/h (0 Bft) N-NE 22 0 min 0 W/m -3,7 C -2,9 C 0,0 km/h (0 Bft)
27/12/2011 07:05 -2,9 C 94 % 1031,8 hPa 0,0 mm 0,0 km/h (0 Bft) N-NE 22 0 min 0 W/m -3,7 C -2,9 C 0,0 km/h (0 Bft)
27/12/2011 07:10 -3,0 C 94 % 1031,8 hPa 0,0 mm 0,0 km/h (0 Bft) N-NE 22 0 min 0 W/m -3,8 C -3,0 C 0,0 km/h (0 Bft)
27/12/2011 07:15 -3,1 C 94 % 1031,8 hPa 0,0 mm 0,0 km/h (0 Bft) N-NE 22 0 min 0 W/m -3,9 C -3,1 C 0,0 km/h (0 Bft)
27/12/2011 07:20 -3,1 C 94 % 1031,8 hPa 0,0 mm 0,0 km/h (0 Bft) N-NE 22 0 min 0 W/m -3,9 C -3,1 C 0,0 km/h (0 Bft)
27/12/2011 07:25 -3,1 C 94 % 1031,8 hPa 0,0 mm 0,0 km/h (0 Bft) N-NE 22 0 min 0 W/m -3,9 C -3,1 C 0,0 km/h (0 Bft)
27/12/2011 07:30 -3,2 C 94 % 1031,8 hPa 0,0 mm 0,0 km/h (0 Bft) N-NE 22 0 min 0 W/m -4,0 C -3,2 C 0,0 km/h (0 Bft)
27/12/2011 07:35 -3,2 C 94 % 1031,8 hPa 0,0 mm 0,0 km/h (0 Bft) N-NE 22 0 min 0 W/m -4,0 C -3,2 C 0,0 km/h (0 Bft)
27/12/2011 07:40 -3,2 C 94 % 1031,9 hPa 0,0 mm 0,0 km/h (0 Bft) N-NE 22 0 min 0 W/m -4,0 C -3,2 C 0,0 km/h (0 Bft)
27/12/2011 07:45 -3,2 C 94 % 1032,0 hPa 0,0 mm 0,0 km/h (0 Bft) N-NE 22 0 min 0 W/m -4,0 C -3,2 C 0,0 km/h (0 Bft)
27/12/2011 07:50 -3,2 C 94 % 1032,0 hPa 0,0 mm 0,0 km/h (0 Bft) N 360 0 min 0 W/m -4,0 C -3,2 C 0,0 km/h (0 Bft)
27/12/2011 07:55 -3,2 C 94 % 1032,1 hPa 0,0 mm 0,0 km/h (0 Bft) N 360 0 min 0 W/m -4,0 C -3,2 C 0,0 km/h (0 Bft)
27/12/2011 08:00 -3,1 C 94 % 1032,1 hPa 0,0 mm 0,0 km/h (0 Bft) N 360 0 min 0 W/m -3,9 C -3,1 C 0,0 km/h (0 Bft)
27/12/2011 08:05 -3,1 C 94 % 1032,1 hPa 0,0 mm 0,0 km/h (0 Bft) N-NO 337 0 min 0 W/m -3,9 C -3,1 C 3,6 km/h (1 Bft)
27/12/2011 08:10 -2,9 C 94 % 1032,3 hPa 0,0 mm 0,0 km/h (0 Bft) N-NE 22 0 min 0 W/m -3,7 C -2,9 C 0,0 km/h (0 Bft)
27/12/2011 08:15 -2,9 C 94 % 1032,3 hPa 0,0 mm 0,0 km/h (0 Bft) N 360 0 min 0 W/m -3,7 C -2,9 C 0,0 km/h (0 Bft)
27/12/2011 08:20 -2,9 C 94 % 1032,3 hPa 0,0 mm 0,0 km/h (0 Bft) N 360 0 min 0 W/m -3,7 C -2,9 C 0,0 km/h (0 Bft)
27/12/2011 08:25 -2,9 C 94 % 1032,4 hPa 0,0 mm 0,0 km/h (0 Bft) N 360 0 min 0 W/m -3,7 C -2,9 C 0,0 km/h (0 Bft)
27/12/2011 08:30 -3,0 C 94 % 1032,4 hPa 0,0 mm 0,0 km/h (0 Bft) N 360 0 min 0 W/m -3,8 C -3,0 C 0,0 km/h (0 Bft)
27/12/2011 08:35 -3,1 C 94 % 1032,4 hPa 0,0 mm 0,0 km/h (0 Bft) N 360 0 min 0 W/m -3,9 C -3,1 C 0,0 km/h (0 Bft)
27/12/2011 08:40 -3,1 C 94 % 1032,4 hPa 0,0 mm 0,0 km/h (0 Bft) N 360 0 min 0 W/m -3,9 C -3,1 C 0,0 km/h (0 Bft)
27/12/2011 08:45 -3,1 C 94 % 1032,4 hPa 0,0 mm 0,0 km/h (0 Bft) N 360 0 min 0 W/m -3,9 C -3,1 C 0,0 km/h (0 Bft)
27/12/2011 08:50 -3,1 C 94 % 1032,5 hPa 0,0 mm 0,0 km/h (0 Bft) N 360 0 min 0 W/m -3,9 C -3,1 C 0,0 km/h (0 Bft)
27/12/2011 08:55 -3,2 C 94 % 1032,4 hPa 0,0 mm 0,0 km/h (0 Bft) N 360 0 min 0 W/m -4,0 C -3,2 C 0,0 km/h (0 Bft)
27/12/2011 09:00 -3,2 C 94 % 1032,4 hPa 0,0 mm 0,0 km/h (0 Bft) N 360 0 min 0 W/m -4,0 C -3,2 C 0,0 km/h (0 Bft)
27/12/2011 09:05 -3,2 C 94 % 1032,4 hPa 0,0 mm 0,0 km/h (0 Bft) N 360 0 min 0 W/m -4,0 C -3,2 C 0,0 km/h (0 Bft)
27/12/2011 09:10 -3,2 C 94 % 1032,5 hPa 0,0 mm 0,0 km/h (0 Bft) N 360 0 min 0 W/m -4,0 C -3,2 C 0,0 km/h (0 Bft)
27/12/2011 09:15 -3,2 C 94 % 1032,5 hPa 0,0 mm 0,0 km/h (0 Bft) N 360 0 min 0 W/m -4,0 C -3,2 C 0,0 km/h (0 Bft)
27/12/2011 09:20 -3,1 C 94 % 1032,7 hPa 0,0 mm 0,0 km/h (0 Bft) N 360 0 min 0 W/m -3,9 C -3,1 C 0,0 km/h (0 Bft)
27/12/2011 09:25 -2,9 C 94 % 1032,7 hPa 0,0 mm 0,0 km/h (0 Bft) N 360 0 min 0 W/m -3,7 C -2,9 C 0,0 km/h (0 Bft)
27/12/2011 09:30 -2,6 C 94 % 1032,7 hPa 0,0 mm 0,0 km/h (0 Bft) N 360 0 min 0 W/m -3,4 C -2,6 C 0,0 km/h (0 Bft)
27/12/2011 09:35 -2,2 C 95 % 1032,7 hPa 0,0 mm 0,0 km/h (0 Bft) N 360 0 min 0 W/m -2,9 C -2,2 C 0,0 km/h (0 Bft)
27/12/2011 09:40 -1,8 C 95 % 1032,7 hPa 0,0 mm 0,0 km/h (0 Bft) N 360 0 min 0 W/m -2,5 C -1,8 C 0,0 km/h (0 Bft)
27/12/2011 09:45 -1,4 C 94 % 1032,7 hPa 0,0 mm 0,0 km/h (0 Bft) N 360 0 min 0 W/m -2,2 C -1,4 C 0,0 km/h (0 Bft)
27/12/2011 09:50 -1,1 C 95 % 1032,8 hPa 0,0 mm 0,0 km/h (0 Bft) N 360 0 min 0 W/m -1,8 C -1,1 C 0,0 km/h (0 Bft)
27/12/2011 09:55 -0,6 C 95 % 1032,9 hPa 0,0 mm 0,0 km/h (0 Bft) N 360 0 min 0 W/m -1,3 C -0,6 C 0,0 km/h (0 Bft)
27/12/2011 10:00 -0,2 C 95 % 1033,0 hPa 0,0 mm 0,0 km/h (0 Bft) N 360 0 min 0 W/m -0,9 C -0,2 C 0,0 km/h (0 Bft)
27/12/2011 10:05 0,3 C 95 % 1033,0 hPa 0,0 mm 0,0 km/h (0 Bft) N 360 0 min 0 W/m -0,4 C 0,3 C 0,0 km/h (0 Bft)
27/12/2011 10:10 0,8 C 95 % 1033,1 hPa 0,0 mm 0,0 km/h (0 Bft) N 360 0 min 0 W/m 0,1 C 0,8 C 0,0 km/h (0 Bft)
27/12/2011 10:15 1,1 C 95 % 1033,1 hPa 0,0 mm 0,0 km/h (0 Bft) N 360 0 min 0 W/m 0,4 C 1,1 C 0,0 km/h (0 Bft)
27/12/2011 10:20 1,5 C 95 % 1033,1 hPa 0,0 mm 0,0 km/h (0 Bft) N 360 0 min 0 W/m 0,8 C 1,5 C 0,0 km/h (0 Bft)
27/12/2011 10:25 1,8 C 94 % 1033,2 hPa 0,0 mm 0,0 km/h (0 Bft) N 360 0 min 0 W/m 0,9 C 1,8 C 0,0 km/h (0 Bft)
27/12/2011 10:30 1,9 C 94 % 1033,3 hPa 0,0 mm 0,0 km/h (0 Bft) N-NE 22 0 min 0 W/m 1,0 C 1,9 C 0,0 km/h (0 Bft)
27/12/2011 10:35 2,1 C 94 % 1033,4 hPa 0,0 mm 0,0 km/h (0 Bft) N-NE 22 0 min 0 W/m 1,2 C 2,1 C 0,0 km/h (0 Bft)
27/12/2011 10:40 2,3 C 93 % 1033,5 hPa 0,0 mm 0,0 km/h (0 Bft) N-NE 22 0 min 0 W/m 1,3 C 2,3 C 0,0 km/h (0 Bft)
27/12/2011 10:45 2,5 C 92 % 1033,5 hPa 0,0 mm 0,0 km/h (0 Bft) N-NE 22 0 min 0 W/m 1,3 C 2,5 C 0,0 km/h (0 Bft)
27/12/2011 10:50 2,8 C 92 % 1033,6 hPa 0,0 mm 0,0 km/h (0 Bft) N-NE 22 0 min 0 W/m 1,6 C 2,8 C 0,0 km/h (0 Bft)
27/12/2011 10:55 2,9 C 91 % 1033,5 hPa 0,0 mm 0,0 km/h (0 Bft) N-NE 22 0 min 0 W/m 1,6 C 2,9 C 0,0 km/h (0 Bft)
27/12/2011 11:00 3,2 C 91 % 1033,5 hPa 0,0 mm 0,0 km/h (0 Bft) N-NE 22 0 min 0 W/m 1,9 C 3,2 C 0,0 km/h (0 Bft)
27/12/2011 11:05 3,6 C 91 % 1033,6 hPa 0,0 mm 0,0 km/h (0 Bft) N-NE 22 0 min 0 W/m 2,3 C 3,6 C 0,0 km/h (0 Bft)
27/12/2011 11:10 3,9 C 90 % 1033,7 hPa 0,0 mm 0,0 km/h (0 Bft) N-NE 22 0 min 0 W/m 2,4 C 3,9 C 0,0 km/h (0 Bft)
27/12/2011 11:15 4,2 C 90 % 1033,6 hPa 0,0 mm 0,0 km/h (0 Bft) N-NE 22 0 min 0 W/m 2,7 C 4,2 C 0,0 km/h (0 Bft)
27/12/2011 11:20 4,5 C 90 % 1033,6 hPa 0,0 mm 0,0 km/h (0 Bft) N-NE 22 0 min 0 W/m 3,0 C 4,5 C 0,0 km/h (0 Bft)
27/12/2011 11:25 4,8 C 90 % 1033,7 hPa 0,0 mm 0,0 km/h (0 Bft) N-NE 22 0 min 0 W/m 3,3 C 4,8 C 0,0 km/h (0 Bft)
27/12/2011 11:30 5,1 C 89 % 1033,7 hPa 0,0 mm 0,0 km/h (0 Bft) N-NE 22 0 min 0 W/m 3,4 C 5,1 C 0,0 km/h (0 Bft)
27/12/2011 11:35 5,3 C 89 % 1033,5 hPa 0,0 mm 0,0 km/h (0 Bft) N-NE 22 0 min 0 W/m 3,6 C 5,3 C 0,0 km/h (0 Bft)
27/12/2011 11:40 5,6 C 89 % 1033,5 hPa 0,0 mm 0,0 km/h (0 Bft) N-NE 22 0 min 0 W/m 3,9 C 5,6 C 0,0 km/h (0 Bft)
27/12/2011 11:45 5,8 C 89 % 1033,5 hPa 0,0 mm 0,0 km/h (0 Bft) N-NE 22 0 min 0 W/m 4,1 C 5,8 C 0,0 km/h (0 Bft)
27/12/2011 11:50 6,0 C 89 % 1033,5 hPa 0,0 mm 0,0 km/h (0 Bft) NE 45 0 min 0 W/m 4,3 C 6,0 C 0,0 km/h (0 Bft)
27/12/2011 11:55 6,3 C 88 % 1033,5 hPa 0,0 mm 0,0 km/h (0 Bft) NE 45 0 min 0 W/m 4,5 C 6,3 C 0,0 km/h (0 Bft)
27/12/2011 12:00 6,5 C 88 % 1033,5 hPa 0,0 mm 0,0 km/h (0 Bft) NE 45 0 min 0 W/m 4,7 C 6,5 C 0,0 km/h (0 Bft)
27/12/2011 12:05 6,8 C 87 % 1033,4 hPa 0,0 mm 0,0 km/h (0 Bft) NE 45 0 min 0 W/m 4,8 C 6,8 C 0,0 km/h (0 Bft)
27/12/2011 12:10 6,9 C 87 % 1033,5 hPa 0,0 mm 0,0 km/h (0 Bft) NE 45 0 min 0 W/m 4,9 C 6,9 C 0,0 km/h (0 Bft)
27/12/2011 12:15 6,9 C 87 % 1033,5 hPa 0,0 mm 0,0 km/h (0 Bft) NE 45 0 min 0 W/m 4,9 C 6,9 C 0,0 km/h (0 Bft)
27/12/2011 12:20 7,1 C 87 % 1033,4 hPa 0,0 mm 0,0 km/h (0 Bft) NE 45 0 min 0 W/m 5,1 C 7,1 C 0,0 km/h (0 Bft)
27/12/2011 12:25 7,3 C 87 % 1033,3 hPa 0,0 mm 0,0 km/h (0 Bft) NE 45 0 min 0 W/m 5,3 C 7,3 C 0,0 km/h (0 Bft)
27/12/2011 12:30 7,4 C 86 % 1033,4 hPa 0,0 mm 0,7 km/h (0 Bft) NE 45 0 min 0 W/m 5,2 C 7,4 C 3,6 km/h (1 Bft)
27/12/2011 12:35 7,4 C 85 % 1033,4 hPa 0,0 mm 0,4 km/h (0 Bft) N-NE 22 0 min 0 W/m 5,0 C 7,4 C 3,6 km/h (1 Bft)
27/12/2011 12:40 7,5 C 85 % 1033,3 hPa 0,0 mm 1,8 km/h (1 Bft) N-NE 22 0 min 0 W/m 5,1 C 7,5 C 4,3 km/h (1 Bft)
27/12/2011 12:45 7,6 C 85 % 1033,2 hPa 0,0 mm 0,4 km/h (0 Bft) N-NE 22 0 min 0 W/m 5,2 C 7,6 C 3,2 km/h (1 Bft)
27/12/2011 12:50 7,8 C 85 % 1033,1 hPa 0,0 mm 0,0 km/h (0 Bft) N-NE 22 0 min 0 W/m 5,4 C 7,8 C 0,0 km/h (0 Bft)
27/12/2011 12:55 7,8 C 84 % 1033,1 hPa 0,0 mm 0,0 km/h (0 Bft) N-NE 22 0 min 0 W/m 5,3 C 7,8 C 0,0 km/h (0 Bft)
27/12/2011 13:00 7,8 C 85 % 1033,0 hPa 0,0 mm 0,0 km/h (0 Bft) N-NE 22 0 min 0 W/m 5,4 C 7,8 C 0,0 km/h (0 Bft)
27/12/2011 13:05 7,8 C 84 % 1033,0 hPa 0,0 mm 3,6 km/h (1 Bft) N-NE 22 0 min 0 W/m 5,3 C 7,8 C 8,3 km/h (2 Bft)
27/12/2011 13:10 7,8 C 84 % 1033,0 hPa 0,0 mm 2,2 km/h (1 Bft) N-NO 337 0 min 0 W/m 5,3 C 7,8 C 7,2 km/h (2 Bft)
27/12/2011 13:15 7,6 C 83 % 1032,9 hPa 0,0 mm 3,6 km/h (1 Bft) N-NE 22 0 min 0 W/m 4,9 C 7,6 C 6,5 km/h (2 Bft)
27/12/2011 13:20 7,3 C 83 % 1032,9 hPa 0,0 mm 2,2 km/h (1 Bft) N-NE 22 0 min 0 W/m 4,6 C 7,3 C 3,2 km/h (1 Bft)
27/12/2011 13:25 6,9 C 83 % 1032,8 hPa 0,0 mm 1,4 km/h (1 Bft) N-NE 22 0 min 0 W/m 4,2 C 6,9 C 4,0 km/h (1 Bft)
27/12/2011 13:30 6,8 C 84 % 1032,7 hPa 0,0 mm 1,4 km/h (1 Bft) N-NE 22 0 min 0 W/m 4,3 C 6,8 C 4,0 km/h (1 Bft)
27/12/2011 13:35 6,8 C 84 % 1032,6 hPa 0,0 mm 0,0 km/h (0 Bft) N 360 0 min 0 W/m 4,3 C 6,8 C 0,0 km/h (0 Bft)
27/12/2011 13:40 6,8 C 85 % 1032,5 hPa 0,0 mm 0,4 km/h (0 Bft) N 360 0 min 0 W/m 4,5 C 6,8 C 3,2 km/h (1 Bft)
27/12/2011 13:45 6,9 C 84 % 1032,4 hPa 0,0 mm 1,4 km/h (1 Bft) NE 45 0 min 0 W/m 4,4 C 6,9 C 3,6 km/h (1 Bft)
27/12/2011 13:50 6,9 C 84 % 1032,5 hPa 0,0 mm 2,2 km/h (1 Bft) N-NE 22 0 min 0 W/m 4,4 C 6,9 C 4,3 km/h (1 Bft)
27/12/2011 13:55 6,8 C 84 % 1032,6 hPa 0,0 mm 1,8 km/h (1 Bft) N-NE 22 0 min 0 W/m 4,3 C 6,8 C 4,7 km/h (1 Bft)
27/12/2011 14:00 6,7 C 84 % 1032,6 hPa 0,0 mm 1,1 km/h (1 Bft) N-NE 22 0 min 0 W/m 4,2 C 6,7 C 3,6 km/h (1 Bft)
27/12/2011 14:05 6,6 C 84 % 1032,7 hPa 0,0 mm 2,5 km/h (1 Bft) N-NE 22 0 min 0 W/m 4,1 C 6,6 C 4,3 km/h (1 Bft)
27/12/2011 14:10 6,6 C 84 % 1032,7 hPa 0,0 mm 0,4 km/h (0 Bft) N-NE 22 0 min 0 W/m 4,1 C 6,6 C 0,4 km/h (0 Bft)
27/12/2011 14:15 6,6 C 84 % 1032,6 hPa 0,0 mm 0,7 km/h (0 Bft) N-NE 22 0 min 0 W/m 4,1 C 6,6 C 3,2 km/h (1 Bft)
27/12/2011 14:20 6,6 C 84 % 1032,3 hPa 0,0 mm 2,9 km/h (1 Bft) N-NE 22 0 min 0 W/m 4,1 C 6,6 C 3,2 km/h (1 Bft)
27/12/2011 14:25 6,6 C 84 % 1032,3 hPa 0,0 mm 1,1 km/h (1 Bft) N-NE 22 0 min 0 W/m 4,1 C 6,6 C 4,0 km/h (1 Bft)
27/12/2011 14:30 6,8 C 85 % 1032,3 hPa 0,0 mm 1,1 km/h (1 Bft) N-NE 22 0 min 0 W/m 4,5 C 6,8 C 3,6 km/h (1 Bft)
27/12/2011 14:35 6,8 C 84 % 1032,1 hPa 0,0 mm 2,9 km/h (1 Bft) N-NE 22 0 min 0 W/m 4,3 C 6,8 C 4,3 km/h (1 Bft)
27/12/2011 14:40 6,7 C 84 % 1032,0 hPa 0,0 mm 1,8 km/h (1 Bft) N-NE 22 0 min 0 W/m 4,2 C 6,7 C 1,8 km/h (1 Bft)
27/12/2011 14:45 6,6 C 84 % 1031,9 hPa 0,0 mm 1,4 km/h (1 Bft) NE 45 0 min 0 W/m 4,1 C 6,6 C 1,4 km/h (1 Bft)
27/12/2011 14:50 6,4 C 85 % 1031,9 hPa 0,0 mm 0,0 km/h (0 Bft) N-NE 22 0 min 0 W/m 4,1 C 6,4 C 0,0 km/h (0 Bft)
27/12/2011 14:55 6,5 C 85 % 1031,9 hPa 0,0 mm 0,0 km/h (0 Bft) N 360 0 min 0 W/m 4,2 C 6,5 C 0,0 km/h (0 Bft)
27/12/2011 15:00 6,6 C 85 % 1031,8 hPa 0,0 mm 0,4 km/h (0 Bft) N-NO 337 0 min 0 W/m 4,3 C 6,6 C 3,2 km/h (1 Bft)
27/12/2011 15:05 6,8 C 85 % 1031,7 hPa 0,0 mm 1,1 km/h (1 Bft) N-NE 22 0 min 0 W/m 4,5 C 6,8 C 2,9 km/h (1 Bft)
27/12/2011 15:10 6,8 C 85 % 1031,7 hPa 0,0 mm 1,8 km/h (1 Bft) N-NE 22 0 min 0 W/m 4,5 C 6,8 C 5,8 km/h (2 Bft)
27/12/2011 15:15 6,7 C 85 % 1031,7 hPa 0,0 mm 0,4 km/h (0 Bft) NO 315 0 min 0 W/m 4,4 C 6,7 C 0,4 km/h (0 Bft)
27/12/2011 15:20 6,7 C 85 % 1031,7 hPa 0,0 mm 0,4 km/h (0 Bft) N-NE 22 0 min 0 W/m 4,4 C 6,7 C 4,0 km/h (1 Bft)
27/12/2011 15:25 6,5 C 85 % 1031,6 hPa 0,0 mm 2,2 km/h (1 Bft) N 360 0 min 0 W/m 4,2 C 6,5 C 6,8 km/h (2 Bft)
27/12/2011 15:30 6,3 C 85 % 1031,6 hPa 0,0 mm 1,1 km/h (1 Bft) N-NE 22 0 min 0 W/m 4,0 C 6,3 C 3,6 km/h (1 Bft)
27/12/2011 15:35 6,1 C 84 % 1031,6 hPa 0,0 mm 0,0 km/h (0 Bft) N 360 0 min 0 W/m 3,6 C 6,1 C 0,0 km/h (0 Bft)
27/12/2011 15:40 6,0 C 85 % 1031,6 hPa 0,0 mm 0,0 km/h (0 Bft) N 360 0 min 0 W/m 3,7 C 6,0 C 0,0 km/h (0 Bft)
27/12/2011 15:45 5,8 C 85 % 1031,5 hPa 0,0 mm 0,0 km/h (0 Bft) N-NO 337 0 min 0 W/m 3,5 C 5,8 C 0,0 km/h (0 Bft)
27/12/2011 15:50 5,8 C 86 % 1031,4 hPa 0,0 mm 0,0 km/h (0 Bft) N-NO 337 0 min 0 W/m 3,6 C 5,8 C 0,0 km/h (0 Bft)
27/12/2011 15:55 5,7 C 86 % 1031,6 hPa 0,0 mm 0,7 km/h (0 Bft) N-NO 337 0 min 0 W/m 3,5 C 5,7 C 0,7 km/h (0 Bft)
27/12/2011 16:00 5,5 C 86 % 1031,5 hPa 0,0 mm 1,8 km/h (1 Bft) N-NE 22 0 min 0 W/m 3,3 C 5,5 C 3,6 km/h (1 Bft)
27/12/2011 16:05 5,2 C 86 % 1031,5 hPa 0,0 mm 1,4 km/h (1 Bft) N-NE 22 0 min 0 W/m 3,1 C 5,2 C 1,4 km/h (1 Bft)
27/12/2011 16:10 4,9 C 86 % 1031,4 hPa 0,0 mm 0,4 km/h (0 Bft) N-NE 22 0 min 0 W/m 2,8 C 4,9 C 2,9 km/h (1 Bft)
27/12/2011 16:15 4,6 C 86 % 1031,4 hPa 0,0 mm 0,0 km/h (0 Bft) N-NE 22 0 min 0 W/m 2,5 C 4,6 C 0,0 km/h (0 Bft)
27/12/2011 16:20 4,3 C 86 % 1031,4 hPa 0,0 mm 0,0 km/h (0 Bft) N-NE 22 0 min 0 W/m 2,2 C 4,3 C 0,0 km/h (0 Bft)
27/12/2011 16:25 4,1 C 87 % 1031,4 hPa 0,0 mm 0,0 km/h (0 Bft) NE 45 0 min 0 W/m 2,1 C 4,1 C 0,0 km/h (0 Bft)
27/12/2011 16:30 3,9 C 88 % 1031,4 hPa 0,0 mm 0,4 km/h (0 Bft) N-NE 22 0 min 0 W/m 2,1 C 3,9 C 4,3 km/h (1 Bft)
27/12/2011 16:35 3,7 C 88 % 1031,4 hPa 0,0 mm 1,4 km/h (1 Bft) N-NE 22 0 min 0 W/m 1,9 C 3,7 C 1,4 km/h (1 Bft)
27/12/2011 16:40 3,5 C 88 % 1031,5 hPa 0,0 mm 0,0 km/h (0 Bft) N-NE 22 0 min 0 W/m 1,7 C 3,5 C 0,0 km/h (0 Bft)
27/12/2011 16:45 3,4 C 88 % 1031,5 hPa 0,0 mm 1,4 km/h (1 Bft) NE 45 0 min 0 W/m 1,6 C 3,4 C 2,9 km/h (1 Bft)
27/12/2011 16:50 3,3 C 88 % 1031,4 hPa 0,0 mm 0,0 km/h (0 Bft) N-NE 22 0 min 0 W/m 1,5 C 3,3 C 0,0 km/h (0 Bft)
_ Min-Heure 09:15 13:25 16:50 - 16:50 - - - - 09:15 09:15 16:50
Minimum _ -3,2 C 83 % 1031,4 hPa - 0,0 km/h (0 Bft) - - - - -4,0 C -3,2 C 0,0 km/h (0 Bft)
_ Max-Heure 13:10 10:20 11:30 16:50 13:15 - - 16:50 16:50 13:00 13:10 13:05
Maximum _ 7,8 C 95 % 1033,7 hPa 0,0 mm 3,6 km/h
N-NE (1 Bft)
- - 0 min 0 W/m 5,4 C 7,8 C 8,3 km/h
N-NE (2 Bft)
Moyenne _ 1,1 C 91 % 1032,4 hPa #0,0 mm 0,3 km/h (0 Bft) N-NE - #0 min. 0 W/m -0,3 C 1,1 C 0,9 km/h (0 Bft)
Saint Bonnet de Bellac- Haute Vienne - France